sensor_id;sensor_type;location;lat;lon;timestamp;P1;durP1;ratioP1;P2;durP2;ratioP2
74512;SDS011;62992;52.052;8.550;2022-11-20T00:01:33;29.15;;;17.83;;
74512;SDS011;62992;52.052;8.550;2022-11-20T00:04:17;36.50;;;17.55;;
74512;SDS011;62992;52.052;8.550;2022-11-20T00:07:01;36.33;;;17.95;;
74512;SDS011;62992;52.052;8.550;2022-11-20T00:09:45;32.15;;;15.90;;
74512;SDS011;62992;52.052;8.550;2022-11-20T00:12:29;36.72;;;16.90;;
74512;SDS011;62992;52.052;8.550;2022-11-20T00:15:13;32.08;;;15.73;;
74512;SDS011;62992;52.052;8.550;2022-11-20T00:17:57;34.70;;;17.13;;
74512;SDS011;62992;52.052;8.550;2022-11-20T00:20:42;37.33;;;17.33;;
74512;SDS011;62992;52.052;8.550;2022-11-20T00:23:25;34.55;;;16.45;;
74512;SDS011;62992;52.052;8.550;2022-11-20T00:26:10;35.13;;;16.92;;
74512;SDS011;62992;52.052;8.550;2022-11-20T00:28:57;35.70;;;18.92;;
74512;SDS011;62992;52.052;8.550;2022-11-20T00:31:43;35.42;;;18.40;;
74512;SDS011;62992;52.052;8.550;2022-11-20T00:34:27;28.40;;;15.35;;
74512;SDS011;62992;52.052;8.550;2022-11-20T00:37:11;29.58;;;14.77;;
74512;SDS011;62992;52.052;8.550;2022-11-20T00:39:55;26.63;;;13.82;;
74512;SDS011;62992;52.052;8.550;2022-11-20T00:42:39;26.13;;;15.35;;
74512;SDS011;62992;52.052;8.550;2022-11-20T00:45:23;30.08;;;15.10;;
74512;SDS011;62992;52.052;8.550;2022-11-20T00:48:07;26.40;;;13.80;;
74512;SDS011;62992;52.052;8.550;2022-11-20T00:50:51;23.60;;;13.90;;
74512;SDS011;62992;52.052;8.550;2022-11-20T00:53:36;29.35;;;14.68;;
74512;SDS011;62992;52.052;8.550;2022-11-20T00:56:20;27.17;;;14.80;;
74512;SDS011;62992;52.052;8.550;2022-11-20T00:59:04;24.58;;;12.93;;
74512;SDS011;62992;52.052;8.550;2022-11-20T01:01:48;25.02;;;14.20;;
74512;SDS011;62992;52.052;8.550;2022-11-20T01:04:32;26.58;;;14.23;;
74512;SDS011;62992;52.052;8.550;2022-11-20T01:07:16;23.00;;;12.50;;
74512;SDS011;62992;52.052;8.550;2022-11-20T01:10:00;24.67;;;12.45;;
74512;SDS011;62992;52.052;8.550;2022-11-20T01:12:44;23.73;;;13.15;;
74512;SDS011;62992;52.052;8.550;2022-11-20T01:15:48;24.70;;;12.90;;
74512;SDS011;62992;52.052;8.550;2022-11-20T01:18:32;25.17;;;14.23;;
74512;SDS011;62992;52.052;8.550;2022-11-20T01:21:19;26.73;;;14.35;;
74512;SDS011;62992;52.052;8.550;2022-11-20T01:24:05;23.27;;;13.50;;
74512;SDS011;62992;52.052;8.550;2022-11-20T01:26:51;22.60;;;14.10;;
74512;SDS011;62992;52.052;8.550;2022-11-20T01:29:35;25.77;;;13.80;;
74512;SDS011;62992;52.052;8.550;2022-11-20T01:32:20;27.65;;;13.68;;
74512;SDS011;62992;52.052;8.550;2022-11-20T01:35:04;25.20;;;13.35;;
74512;SDS011;62992;52.052;8.550;2022-11-20T01:37:49;27.30;;;13.43;;
74512;SDS011;62992;52.052;8.550;2022-11-20T01:40:34;28.52;;;15.05;;
74512;SDS011;62992;52.052;8.550;2022-11-20T01:43:19;23.58;;;12.77;;
74512;SDS011;62992;52.052;8.550;2022-11-20T01:49:02;24.92;;;13.10;;
74512;SDS011;62992;52.052;8.550;2022-11-20T01:52:27;23.42;;;12.80;;
74512;SDS011;62992;52.052;8.550;2022-11-20T01:57:52;26.48;;;13.13;;
74512;SDS011;62992;52.052;8.550;2022-11-20T02:00:38;33.25;;;15.15;;
74512;SDS011;62992;52.052;8.550;2022-11-20T02:03:22;24.33;;;13.38;;
74512;SDS011;62992;52.052;8.550;2022-11-20T02:06:10;28.60;;;14.10;;
74512;SDS011;62992;52.052;8.550;2022-11-20T02:09:16;25.05;;;13.10;;
74512;SDS011;62992;52.052;8.550;2022-11-20T02:12:00;24.90;;;14.05;;
74512;SDS011;62992;52.052;8.550;2022-11-20T02:14:45;27.38;;;13.65;;
74512;SDS011;62992;52.052;8.550;2022-11-20T02:17:29;22.15;;;11.73;;
74512;SDS011;62992;52.052;8.550;2022-11-20T02:20:13;27.75;;;14.25;;
74512;SDS011;62992;52.052;8.550;2022-11-20T02:22:59;26.30;;;13.73;;
74512;SDS011;62992;52.052;8.550;2022-11-20T02:25:55;24.95;;;12.98;;
74512;SDS011;62992;52.052;8.550;2022-11-20T02:28:41;23.67;;;12.43;;
74512;SDS011;62992;52.052;8.550;2022-11-20T02:31:25;28.00;;;13.30;;
74512;SDS011;62992;52.052;8.550;2022-11-20T02:34:10;23.05;;;12.48;;
74512;SDS011;62992;52.052;8.550;2022-11-20T02:36:54;25.90;;;12.82;;
74512;SDS011;62992;52.052;8.550;2022-11-20T02:39:40;25.08;;;13.68;;
74512;SDS011;62992;52.052;8.550;2022-11-20T02:45:10;19.10;;;11.38;;
74512;SDS011;62992;52.052;8.550;2022-11-20T02:47:55;21.67;;;12.52;;
74512;SDS011;62992;52.052;8.550;2022-11-20T02:50:39;20.73;;;11.82;;
74512;SDS011;62992;52.052;8.550;2022-11-20T02:53:24;21.48;;;11.75;;
74512;SDS011;62992;52.052;8.550;2022-11-20T02:56:08;22.50;;;11.38;;
74512;SDS011;62992;52.052;8.550;2022-11-20T02:58:52;22.88;;;12.10;;
74512;SDS011;62992;52.052;8.550;2022-11-20T03:01:36;19.63;;;11.38;;
74512;SDS011;62992;52.052;8.550;2022-11-20T03:04:20;23.15;;;12.68;;
74512;SDS011;62992;52.052;8.550;2022-11-20T03:07:05;26.30;;;12.43;;
74512;SDS011;62992;52.052;8.550;2022-11-20T03:09:49;20.83;;;11.00;;
74512;SDS011;62992;52.052;8.550;2022-11-20T03:12:33;23.05;;;12.57;;
74512;SDS011;62992;52.052;8.550;2022-11-20T03:15:17;23.73;;;12.52;;
74512;SDS011;62992;52.052;8.550;2022-11-20T03:18:01;21.80;;;12.75;;
74512;SDS011;62992;52.052;8.550;2022-11-20T03:20:45;22.17;;;12.85;;
74512;SDS011;62992;52.052;8.550;2022-11-20T03:23:30;23.33;;;12.50;;
74512;SDS011;62992;52.052;8.550;2022-11-20T03:26:17;21.45;;;11.90;;
74512;SDS011;62992;52.052;8.550;2022-11-20T03:29:04;20.98;;;11.88;;
74512;SDS011;62992;52.052;8.550;2022-11-20T03:31:48;22.48;;;11.77;;
74512;SDS011;62992;52.052;8.550;2022-11-20T03:34:32;20.80;;;11.10;;
74512;SDS011;62992;52.052;8.550;2022-11-20T03:37:16;17.75;;;11.10;;
74512;SDS011;62992;52.052;8.550;2022-11-20T03:40:00;22.45;;;12.77;;
74512;SDS011;62992;52.052;8.550;2022-11-20T03:42:44;22.15;;;12.68;;
74512;SDS011;62992;52.052;8.550;2022-11-20T03:45:28;19.50;;;12.25;;
74512;SDS011;62992;52.052;8.550;2022-11-20T03:48:12;24.70;;;12.35;;
74512;SDS011;62992;52.052;8.550;2022-11-20T03:51:06;22.75;;;11.70;;
74512;SDS011;62992;52.052;8.550;2022-11-20T03:53:53;23.95;;;11.75;;
74512;SDS011;62992;52.052;8.550;2022-11-20T03:56:38;23.73;;;12.18;;
74512;SDS011;62992;52.052;8.550;2022-11-20T03:59:23;21.50;;;12.43;;
74512;SDS011;62992;52.052;8.550;2022-11-20T04:02:07;25.35;;;12.35;;
74512;SDS011;62992;52.052;8.550;2022-11-20T04:04:51;27.23;;;13.35;;
74512;SDS011;62992;52.052;8.550;2022-11-20T04:07:35;22.70;;;12.38;;
74512;SDS011;62992;52.052;8.550;2022-11-20T04:10:20;20.30;;;11.60;;
74512;SDS011;62992;52.052;8.550;2022-11-20T04:13:04;22.17;;;13.02;;
74512;SDS011;62992;52.052;8.550;2022-11-20T04:15:48;24.35;;;13.48;;
74512;SDS011;62992;52.052;8.550;2022-11-20T04:18:32;18.23;;;12.05;;
74512;SDS011;62992;52.052;8.550;2022-11-20T04:21:17;27.35;;;11.60;;
74512;SDS011;62992;52.052;8.550;2022-11-20T04:24:01;27.00;;;12.38;;
74512;SDS011;62992;52.052;8.550;2022-11-20T04:26:45;23.92;;;12.88;;
74512;SDS011;62992;52.052;8.550;2022-11-20T04:29:29;19.52;;;11.82;;
74512;SDS011;62992;52.052;8.550;2022-11-20T04:32:13;20.73;;;11.80;;
74512;SDS011;62992;52.052;8.550;2022-11-20T04:34:57;21.67;;;11.77;;
74512;SDS011;62992;52.052;8.550;2022-11-20T04:37:42;20.67;;;11.82;;
74512;SDS011;62992;52.052;8.550;2022-11-20T04:40:27;22.67;;;11.48;;
74512;SDS011;62992;52.052;8.550;2022-11-20T04:43:11;20.35;;;12.07;;
74512;SDS011;62992;52.052;8.550;2022-11-20T04:45:56;18.17;;;11.52;;
74512;SDS011;62992;52.052;8.550;2022-11-20T04:51:25;18.00;;;11.45;;
74512;SDS011;62992;52.052;8.550;2022-11-20T04:54:10;19.65;;;11.45;;
74512;SDS011;62992;52.052;8.550;2022-11-20T04:56:55;21.83;;;12.05;;
74512;SDS011;62992;52.052;8.550;2022-11-20T04:59:40;18.50;;;11.77;;
74512;SDS011;62992;52.052;8.550;2022-11-20T05:02:25;24.05;;;12.55;;
74512;SDS011;62992;52.052;8.550;2022-11-20T05:05:09;23.90;;;11.23;;
74512;SDS011;62992;52.052;8.550;2022-11-20T05:07:55;23.23;;;11.68;;
74512;SDS011;62992;52.052;8.550;2022-11-20T05:10:40;17.27;;;10.55;;
74512;SDS011;62992;52.052;8.550;2022-11-20T05:13:24;23.23;;;11.80;;
74512;SDS011;62992;52.052;8.550;2022-11-20T05:16:13;22.63;;;10.83;;
74512;SDS011;62992;52.052;8.550;2022-11-20T05:18:59;19.35;;;11.05;;
74512;SDS011;62992;52.052;8.550;2022-11-20T05:21:43;18.20;;;10.90;;
74512;SDS011;62992;52.052;8.550;2022-11-20T05:24:28;19.67;;;10.40;;
74512;SDS011;62992;52.052;8.550;2022-11-20T05:27:12;20.23;;;11.07;;
74512;SDS011;62992;52.052;8.550;2022-11-20T05:29:55;21.45;;;11.38;;
74512;SDS011;62992;52.052;8.550;2022-11-20T05:32:40;19.50;;;12.18;;
74512;SDS011;62992;52.052;8.550;2022-11-20T05:35:24;20.52;;;11.88;;
74512;SDS011;62992;52.052;8.550;2022-11-20T05:38:08;21.95;;;11.45;;
74512;SDS011;62992;52.052;8.550;2022-11-20T05:40:52;20.30;;;10.30;;
74512;SDS011;62992;52.052;8.550;2022-11-20T05:43:37;20.75;;;11.15;;
74512;SDS011;62992;52.052;8.550;2022-11-20T05:46:22;20.25;;;10.13;;
74512;SDS011;62992;52.052;8.550;2022-11-20T05:49:06;18.75;;;10.43;;
74512;SDS011;62992;52.052;8.550;2022-11-20T05:51:50;22.08;;;10.65;;
74512;SDS011;62992;52.052;8.550;2022-11-20T05:54:35;19.17;;;10.75;;
74512;SDS011;62992;52.052;8.550;2022-11-20T05:57:19;19.83;;;10.35;;
74512;SDS011;62992;52.052;8.550;2022-11-20T06:00:03;22.02;;;10.63;;
74512;SDS011;62992;52.052;8.550;2022-11-20T06:02:47;18.67;;;10.07;;
74512;SDS011;62992;52.052;8.550;2022-11-20T06:05:33;18.88;;;9.95;;
74512;SDS011;62992;52.052;8.550;2022-11-20T06:08:17;18.27;;;10.00;;
74512;SDS011;62992;52.052;8.550;2022-11-20T06:11:04;15.68;;;9.55;;
74512;SDS011;62992;52.052;8.550;2022-11-20T06:13:50;17.15;;;9.48;;
74512;SDS011;62992;52.052;8.550;2022-11-20T06:16:34;16.30;;;8.68;;
74512;SDS011;62992;52.052;8.550;2022-11-20T06:19:18;17.40;;;9.23;;
74512;SDS011;62992;52.052;8.550;2022-11-20T06:22:02;17.80;;;9.82;;
74512;SDS011;62992;52.052;8.550;2022-11-20T06:24:47;17.02;;;9.15;;
74512;SDS011;62992;52.052;8.550;2022-11-20T06:27:31;14.02;;;9.13;;
74512;SDS011;62992;52.052;8.550;2022-11-20T06:30:15;18.30;;;8.32;;
74512;SDS011;62992;52.052;8.550;2022-11-20T06:32:59;19.48;;;8.70;;
74512;SDS011;62992;52.052;8.550;2022-11-20T06:35:43;20.67;;;9.57;;
74512;SDS011;62992;52.052;8.550;2022-11-20T06:38:27;15.93;;;9.10;;
74512;SDS011;62992;52.052;8.550;2022-11-20T06:41:14;15.52;;;8.23;;
74512;SDS011;62992;52.052;8.550;2022-11-20T06:44:00;15.40;;;8.40;;
74512;SDS011;62992;52.052;8.550;2022-11-20T06:46:44;16.10;;;9.02;;
74512;SDS011;62992;52.052;8.550;2022-11-20T06:49:28;15.65;;;8.68;;
74512;SDS011;62992;52.052;8.550;2022-11-20T06:52:12;15.88;;;8.73;;
74512;SDS011;62992;52.052;8.550;2022-11-20T06:54:56;15.85;;;7.88;;
74512;SDS011;62992;52.052;8.550;2022-11-20T06:57:40;14.68;;;8.43;;
74512;SDS011;62992;52.052;8.550;2022-11-20T07:00:24;14.57;;;7.93;;
74512;SDS011;62992;52.052;8.550;2022-11-20T07:03:09;17.63;;;8.48;;
74512;SDS011;62992;52.052;8.550;2022-11-20T07:05:55;14.88;;;7.85;;
74512;SDS011;62992;52.052;8.550;2022-11-20T07:08:39;17.63;;;9.45;;
74512;SDS011;62992;52.052;8.550;2022-11-20T07:11:23;16.45;;;8.35;;
74512;SDS011;62992;52.052;8.550;2022-11-20T07:14:07;16.95;;;9.70;;
74512;SDS011;62992;52.052;8.550;2022-11-20T07:16:51;20.02;;;10.10;;
74512;SDS011;62992;52.052;8.550;2022-11-20T07:19:36;15.95;;;9.13;;
74512;SDS011;62992;52.052;8.550;2022-11-20T07:22:20;18.58;;;9.45;;
74512;SDS011;62992;52.052;8.550;2022-11-20T07:25:05;18.55;;;9.40;;
74512;SDS011;62992;52.052;8.550;2022-11-20T07:27:50;21.70;;;10.53;;
74512;SDS011;62992;52.052;8.550;2022-11-20T07:30:34;18.98;;;10.48;;
74512;SDS011;62992;52.052;8.550;2022-11-20T07:33:19;20.17;;;10.82;;
74512;SDS011;62992;52.052;8.550;2022-11-20T07:36:03;23.85;;;10.65;;
74512;SDS011;62992;52.052;8.550;2022-11-20T07:38:47;17.05;;;9.77;;
74512;SDS011;62992;52.052;8.550;2022-11-20T07:41:31;18.90;;;10.07;;
74512;SDS011;62992;52.052;8.550;2022-11-20T07:44:16;18.85;;;9.50;;
74512;SDS011;62992;52.052;8.550;2022-11-20T07:47:00;22.55;;;10.43;;
74512;SDS011;62992;52.052;8.550;2022-11-20T07:49:44;18.33;;;9.20;;
74512;SDS011;62992;52.052;8.550;2022-11-20T07:52:28;19.10;;;10.35;;
74512;SDS011;62992;52.052;8.550;2022-11-20T07:55:13;21.42;;;9.60;;
74512;SDS011;62992;52.052;8.550;2022-11-20T07:57:57;17.98;;;9.63;;
74512;SDS011;62992;52.052;8.550;2022-11-20T08:00:42;18.75;;;10.50;;
74512;SDS011;62992;52.052;8.550;2022-11-20T08:03:26;21.80;;;12.07;;
74512;SDS011;62992;52.052;8.550;2022-11-20T08:06:09;22.65;;;11.07;;
74512;SDS011;62992;52.052;8.550;2022-11-20T08:08:54;35.05;;;15.95;;
74512;SDS011;62992;52.052;8.550;2022-11-20T08:11:38;36.60;;;19.20;;
74512;SDS011;62992;52.052;8.550;2022-11-20T08:14:41;41.40;;;17.83;;
74512;SDS011;62992;52.052;8.550;2022-11-20T08:17:25;36.97;;;16.27;;
74512;SDS011;62992;52.052;8.550;2022-11-20T08:20:09;25.90;;;13.93;;
74512;SDS011;62992;52.052;8.550;2022-11-20T08:22:57;27.00;;;12.95;;
74512;SDS011;62992;52.052;8.550;2022-11-20T08:25:48;31.05;;;13.30;;
74512;SDS011;62992;52.052;8.550;2022-11-20T08:28:33;30.52;;;14.82;;
74512;SDS011;62992;52.052;8.550;2022-11-20T08:31:17;32.53;;;13.13;;
74512;SDS011;62992;52.052;8.550;2022-11-20T08:34:01;26.77;;;10.82;;
74512;SDS011;62992;52.052;8.550;2022-11-20T08:36:45;27.40;;;11.98;;
74512;SDS011;62992;52.052;8.550;2022-11-20T08:39:29;21.88;;;11.77;;
74512;SDS011;62992;52.052;8.550;2022-11-20T08:42:13;27.10;;;11.95;;
74512;SDS011;62992;52.052;8.550;2022-11-20T08:44:57;21.98;;;10.70;;
74512;SDS011;62992;52.052;8.550;2022-11-20T08:47:42;25.38;;;11.05;;
74512;SDS011;62992;52.052;8.550;2022-11-20T08:50:26;25.75;;;10.98;;
74512;SDS011;62992;52.052;8.550;2022-11-20T08:53:10;21.23;;;10.57;;
74512;SDS011;62992;52.052;8.550;2022-11-20T08:55:54;23.83;;;11.05;;
74512;SDS011;62992;52.052;8.550;2022-11-20T09:01:25;16.50;;;7.88;;
74512;SDS011;62992;52.052;8.550;2022-11-20T09:04:09;20.85;;;11.15;;
74512;SDS011;62992;52.052;8.550;2022-11-20T09:06:54;20.27;;;10.43;;
74512;SDS011;62992;52.052;8.550;2022-11-20T09:09:39;18.85;;;9.30;;
74512;SDS011;62992;52.052;8.550;2022-11-20T09:12:22;22.45;;;12.23;;
74512;SDS011;62992;52.052;8.550;2022-11-20T09:15:07;22.15;;;11.27;;
74512;SDS011;62992;52.052;8.550;2022-11-20T09:17:52;19.75;;;9.57;;
74512;SDS011;62992;52.052;8.550;2022-11-20T09:20:36;17.60;;;9.40;;
74512;SDS011;62992;52.052;8.550;2022-11-20T09:23:20;25.05;;;11.63;;
74512;SDS011;62992;52.052;8.550;2022-11-20T09:26:05;20.92;;;11.40;;
74512;SDS011;62992;52.052;8.550;2022-11-20T09:28:59;21.67;;;10.88;;
74512;SDS011;62992;52.052;8.550;2022-11-20T09:31:43;24.77;;;10.95;;
74512;SDS011;62992;52.052;8.550;2022-11-20T09:34:28;20.50;;;9.97;;
74512;SDS011;62992;52.052;8.550;2022-11-20T09:37:13;19.05;;;9.40;;
74512;SDS011;62992;52.052;8.550;2022-11-20T09:39:57;18.10;;;9.52;;
74512;SDS011;62992;52.052;8.550;2022-11-20T09:42:41;14.07;;;7.60;;
74512;SDS011;62992;52.052;8.550;2022-11-20T09:48:58;12.73;;;6.70;;
74512;SDS011;62992;52.052;8.550;2022-11-20T09:54:49;13.73;;;7.85;;
74512;SDS011;62992;52.052;8.550;2022-11-20T09:57:38;10.10;;;6.05;;
74512;SDS011;62992;52.052;8.550;2022-11-20T10:00:26;13.07;;;7.75;;
74512;SDS011;62992;52.052;8.550;2022-11-20T10:06:30;15.40;;;7.70;;
74512;SDS011;62992;52.052;8.550;2022-11-20T10:09:29;13.77;;;7.35;;
74512;SDS011;62992;52.052;8.550;2022-11-20T10:15:21;13.23;;;7.35;;
74512;SDS011;62992;52.052;8.550;2022-11-20T10:30:03;18.75;;;9.23;;
74512;SDS011;62992;52.052;8.550;2022-11-20T10:32:54;15.18;;;8.93;;
74512;SDS011;62992;52.052;8.550;2022-11-20T10:35:43;14.20;;;7.95;;
74512;SDS011;62992;52.052;8.550;2022-11-20T10:38:37;15.65;;;8.05;;
74512;SDS011;62992;52.052;8.550;2022-11-20T10:41:27;12.77;;;7.10;;
74512;SDS011;62992;52.052;8.550;2022-11-20T10:44:21;13.63;;;7.40;;
74512;SDS011;62992;52.052;8.550;2022-11-20T10:47:32;14.70;;;7.53;;
74512;SDS011;62992;52.052;8.550;2022-11-20T10:50:20;13.60;;;7.28;;
74512;SDS011;62992;52.052;8.550;2022-11-20T10:56:06;12.75;;;6.93;;
74512;SDS011;62992;52.052;8.550;2022-11-20T11:01:46;14.27;;;7.35;;
74512;SDS011;62992;52.052;8.550;2022-11-20T11:04:40;18.10;;;7.97;;
74512;SDS011;62992;52.052;8.550;2022-11-20T11:07:35;15.73;;;7.72;;
74512;SDS011;62992;52.052;8.550;2022-11-20T11:13:30;13.45;;;6.78;;
74512;SDS011;62992;52.052;8.550;2022-11-20T11:19:10;11.02;;;6.40;;
74512;SDS011;62992;52.052;8.550;2022-11-20T11:21:56;12.70;;;6.35;;
74512;SDS011;62992;52.052;8.550;2022-11-20T11:24:43;14.35;;;6.60;;
74512;SDS011;62992;52.052;8.550;2022-11-20T11:27:45;13.48;;;6.63;;
74512;SDS011;62992;52.052;8.550;2022-11-20T11:30:42;11.50;;;6.20;;
74512;SDS011;62992;52.052;8.550;2022-11-20T11:33:29;12.35;;;6.00;;
74512;SDS011;62992;52.052;8.550;2022-11-20T11:36:20;10.57;;;5.97;;
74512;SDS011;62992;52.052;8.550;2022-11-20T11:39:12;11.35;;;6.28;;
74512;SDS011;62992;52.052;8.550;2022-11-20T11:41:59;12.20;;;6.45;;
74512;SDS011;62992;52.052;8.550;2022-11-20T11:44:45;11.27;;;6.40;;
74512;SDS011;62992;52.052;8.550;2022-11-20T11:47:49;13.13;;;6.40;;
74512;SDS011;62992;52.052;8.550;2022-11-20T11:50:35;10.57;;;5.82;;
74512;SDS011;62992;52.052;8.550;2022-11-20T11:53:23;9.63;;;5.88;;
74512;SDS011;62992;52.052;8.550;2022-11-20T11:56:11;11.73;;;6.80;;
74512;SDS011;62992;52.052;8.550;2022-11-20T11:58:57;11.35;;;6.07;;
74512;SDS011;62992;52.052;8.550;2022-11-20T12:01:49;10.32;;;5.88;;
74512;SDS011;62992;52.052;8.550;2022-11-20T12:04:44;11.27;;;6.18;;
74512;SDS011;62992;52.052;8.550;2022-11-20T12:08:36;10.43;;;5.90;;
74512;SDS011;62992;52.052;8.550;2022-11-20T12:11:18;11.43;;;5.35;;
74512;SDS011;62992;52.052;8.550;2022-11-20T12:17:11;10.15;;;5.05;;
74512;SDS011;62992;52.052;8.550;2022-11-20T12:19:56;19.42;;;9.43;;
74512;SDS011;62992;52.052;8.550;2022-11-20T12:22:46;11.52;;;6.00;;
74512;SDS011;62992;52.052;8.550;2022-11-20T12:25:40;15.10;;;7.20;;
74512;SDS011;62992;52.052;8.550;2022-11-20T12:28:34;13.65;;;7.13;;
74512;SDS011;62992;52.052;8.550;2022-11-20T12:34:32;10.15;;;5.35;;
74512;SDS011;62992;52.052;8.550;2022-11-20T12:37:34;10.23;;;5.53;;
74512;SDS011;62992;52.052;8.550;2022-11-20T12:54:05;12.15;;;5.80;;
74512;SDS011;62992;52.052;8.550;2022-11-20T13:03:14;14.57;;;7.05;;
74512;SDS011;62992;52.052;8.550;2022-11-20T13:06:13;11.43;;;5.80;;
74512;SDS011;62992;52.052;8.550;2022-11-20T13:09:00;13.43;;;6.80;;
74512;SDS011;62992;52.052;8.550;2022-11-20T13:17:33;12.48;;;6.68;;
74512;SDS011;62992;52.052;8.550;2022-11-20T13:20:25;13.68;;;6.93;;
74512;SDS011;62992;52.052;8.550;2022-11-20T13:23:10;12.15;;;6.25;;
74512;SDS011;62992;52.052;8.550;2022-11-20T13:26:05;11.18;;;6.20;;
74512;SDS011;62992;52.052;8.550;2022-11-20T13:29:02;12.02;;;6.55;;
74512;SDS011;62992;52.052;8.550;2022-11-20T13:32:03;16.45;;;6.32;;
74512;SDS011;62992;52.052;8.550;2022-11-20T13:35:01;12.25;;;5.45;;
74512;SDS011;62992;52.052;8.550;2022-11-20T13:37:47;11.38;;;5.68;;
74512;SDS011;62992;52.052;8.550;2022-11-20T13:43:39;12.50;;;6.63;;
74512;SDS011;62992;52.052;8.550;2022-11-20T13:46:34;13.40;;;7.00;;
74512;SDS011;62992;52.052;8.550;2022-11-20T13:56:05;14.95;;;6.85;;
74512;SDS011;62992;52.052;8.550;2022-11-20T13:59:10;15.05;;;8.10;;
74512;SDS011;62992;52.052;8.550;2022-11-20T14:02:16;12.77;;;6.90;;
74512;SDS011;62992;52.052;8.550;2022-11-20T14:05:03;14.23;;;7.03;;
74512;SDS011;62992;52.052;8.550;2022-11-20T14:07:49;13.68;;;7.15;;
74512;SDS011;62992;52.052;8.550;2022-11-20T14:10:35;13.73;;;6.38;;
74512;SDS011;62992;52.052;8.550;2022-11-20T14:13:22;19.00;;;6.38;;
74512;SDS011;62992;52.052;8.550;2022-11-20T14:16:08;15.68;;;7.63;;
74512;SDS011;62992;52.052;8.550;2022-11-20T14:18:53;18.33;;;8.02;;
74512;SDS011;62992;52.052;8.550;2022-11-20T14:21:38;16.65;;;7.78;;
74512;SDS011;62992;52.052;8.550;2022-11-20T14:24:23;14.43;;;7.53;;
74512;SDS011;62992;52.052;8.550;2022-11-20T14:27:15;17.77;;;7.70;;
74512;SDS011;62992;52.052;8.550;2022-11-20T14:30:02;15.90;;;7.80;;
74512;SDS011;62992;52.052;8.550;2022-11-20T14:32:47;15.90;;;8.23;;
74512;SDS011;62992;52.052;8.550;2022-11-20T14:35:37;17.63;;;8.90;;
74512;SDS011;62992;52.052;8.550;2022-11-20T14:38:34;17.42;;;7.80;;
74512;SDS011;62992;52.052;8.550;2022-11-20T14:41:23;16.90;;;8.23;;
74512;SDS011;62992;52.052;8.550;2022-11-20T14:44:08;16.30;;;8.60;;
74512;SDS011;62992;52.052;8.550;2022-11-20T14:46:53;16.88;;;9.48;;
74512;SDS011;62992;52.052;8.550;2022-11-20T14:49:39;16.35;;;8.75;;
74512;SDS011;62992;52.052;8.550;2022-11-20T14:52:25;18.00;;;8.98;;
74512;SDS011;62992;52.052;8.550;2022-11-20T14:55:13;15.52;;;8.32;;
74512;SDS011;62992;52.052;8.550;2022-11-20T14:58:21;17.58;;;9.13;;
74512;SDS011;62992;52.052;8.550;2022-11-20T15:01:07;19.38;;;9.32;;
74512;SDS011;62992;52.052;8.550;2022-11-20T15:03:59;19.20;;;9.50;;
74512;SDS011;62992;52.052;8.550;2022-11-20T15:06:55;18.17;;;8.88;;
74512;SDS011;62992;52.052;8.550;2022-11-20T15:09:40;19.98;;;9.65;;
74512;SDS011;62992;52.052;8.550;2022-11-20T15:12:24;17.85;;;9.15;;
74512;SDS011;62992;52.052;8.550;2022-11-20T15:15:10;18.50;;;9.30;;
74512;SDS011;62992;52.052;8.550;2022-11-20T15:17:58;17.63;;;9.82;;
74512;SDS011;62992;52.052;8.550;2022-11-20T15:20:43;18.98;;;10.02;;
74512;SDS011;62992;52.052;8.550;2022-11-20T15:23:28;20.55;;;10.52;;
74512;SDS011;62992;52.052;8.550;2022-11-20T15:26:14;21.07;;;9.80;;
74512;SDS011;62992;52.052;8.550;2022-11-20T15:29:11;21.55;;;10.40;;
74512;SDS011;62992;52.052;8.550;2022-11-20T15:31:56;20.75;;;10.15;;
74512;SDS011;62992;52.052;8.550;2022-11-20T15:34:40;17.55;;;9.48;;
74512;SDS011;62992;52.052;8.550;2022-11-20T15:37:24;20.50;;;9.93;;
74512;SDS011;62992;52.052;8.550;2022-11-20T15:40:09;18.83;;;9.65;;
74512;SDS011;62992;52.052;8.550;2022-11-20T15:42:53;20.38;;;9.98;;
74512;SDS011;62992;52.052;8.550;2022-11-20T15:48:43;18.75;;;9.20;;
74512;SDS011;62992;52.052;8.550;2022-11-20T15:51:30;23.27;;;10.30;;
74512;SDS011;62992;52.052;8.550;2022-11-20T15:54:20;19.15;;;9.50;;
74512;SDS011;62992;52.052;8.550;2022-11-20T15:57:06;22.35;;;10.10;;
74512;SDS011;62992;52.052;8.550;2022-11-20T15:59:50;22.70;;;9.20;;
74512;SDS011;62992;52.052;8.550;2022-11-20T16:02:34;22.00;;;9.38;;
74512;SDS011;62992;52.052;8.550;2022-11-20T16:05:18;23.55;;;10.23;;
74512;SDS011;62992;52.052;8.550;2022-11-20T16:08:03;20.98;;;10.13;;
74512;SDS011;62992;52.052;8.550;2022-11-20T16:10:47;22.50;;;10.95;;
74512;SDS011;62992;52.052;8.550;2022-11-20T16:13:31;18.60;;;10.93;;
74512;SDS011;62992;52.052;8.550;2022-11-20T16:16:35;19.80;;;11.15;;
74512;SDS011;62992;52.052;8.550;2022-11-20T16:19:22;21.75;;;11.23;;
74512;SDS011;62992;52.052;8.550;2022-11-20T16:22:06;22.52;;;11.80;;
74512;SDS011;62992;52.052;8.550;2022-11-20T16:24:54;21.42;;;11.02;;
74512;SDS011;62992;52.052;8.550;2022-11-20T16:27:38;24.63;;;11.20;;
74512;SDS011;62992;52.052;8.550;2022-11-20T16:30:22;23.95;;;11.77;;
74512;SDS011;62992;52.052;8.550;2022-11-20T16:33:11;24.20;;;12.70;;
74512;SDS011;62992;52.052;8.550;2022-11-20T16:35:56;28.00;;;12.25;;
74512;SDS011;62992;52.052;8.550;2022-11-20T16:38:40;22.23;;;11.02;;
74512;SDS011;62992;52.052;8.550;2022-11-20T16:41:25;24.05;;;11.63;;
74512;SDS011;62992;52.052;8.550;2022-11-20T16:44:10;23.73;;;11.50;;
74512;SDS011;62992;52.052;8.550;2022-11-20T16:46:55;20.40;;;10.27;;
74512;SDS011;62992;52.052;8.550;2022-11-20T16:49:39;21.63;;;10.68;;
74512;SDS011;62992;52.052;8.550;2022-11-20T16:52:23;21.98;;;10.85;;
74512;SDS011;62992;52.052;8.550;2022-11-20T16:55:07;23.77;;;11.32;;
74512;SDS011;62992;52.052;8.550;2022-11-20T16:57:51;19.52;;;10.45;;
74512;SDS011;62992;52.052;8.550;2022-11-20T17:00:36;23.38;;;11.60;;
74512;SDS011;62992;52.052;8.550;2022-11-20T17:03:20;22.25;;;10.88;;
74512;SDS011;62992;52.052;8.550;2022-11-20T17:06:15;22.65;;;11.25;;
74512;SDS011;62992;52.052;8.550;2022-11-20T17:09:01;23.98;;;11.02;;
74512;SDS011;62992;52.052;8.550;2022-11-20T17:11:46;19.27;;;10.52;;
74512;SDS011;62992;52.052;8.550;2022-11-20T17:17:15;21.65;;;10.50;;
74512;SDS011;62992;52.052;8.550;2022-11-20T17:19:59;21.77;;;9.75;;
74512;SDS011;62992;52.052;8.550;2022-11-20T17:22:43;21.33;;;10.57;;
74512;SDS011;62992;52.052;8.550;2022-11-20T17:25:30;21.52;;;10.75;;
74512;SDS011;62992;52.052;8.550;2022-11-20T17:28:16;19.48;;;9.82;;
74512;SDS011;62992;52.052;8.550;2022-11-20T17:31:00;21.45;;;9.85;;
74512;SDS011;62992;52.052;8.550;2022-11-20T17:33:46;19.65;;;9.48;;
74512;SDS011;62992;52.052;8.550;2022-11-20T17:36:30;19.63;;;9.98;;
74512;SDS011;62992;52.052;8.550;2022-11-20T17:39:15;23.10;;;10.00;;
74512;SDS011;62992;52.052;8.550;2022-11-20T17:42:00;19.40;;;9.80;;
74512;SDS011;62992;52.052;8.550;2022-11-20T17:45:03;17.88;;;9.32;;
74512;SDS011;62992;52.052;8.550;2022-11-20T17:47:47;19.10;;;9.00;;
74512;SDS011;62992;52.052;8.550;2022-11-20T17:50:31;21.83;;;9.70;;
74512;SDS011;62992;52.052;8.550;2022-11-20T17:53:15;21.83;;;10.38;;
74512;SDS011;62992;52.052;8.550;2022-11-20T17:56:00;20.65;;;9.82;;
74512;SDS011;62992;52.052;8.550;2022-11-20T17:59:04;18.00;;;9.15;;